Time,TemperatureF,DewpointF,PressureIn,WindDirection,WindDirectionDegrees,WindSpeedMPH,WindSpeedGustMPH,Humidity,HourlyPrecipIn,Conditions,Clouds,dailyrainin,SoftwareType,DateUTC
2013-04-08 00:03:00,80.0,-99.9,30.02,ESE,110,8.0,13.0,-999,-99.99,,,-99.99,,2013-04-08 04:03:00,
2013-04-08 00:13:00,80.0,-99.9,30.02,ESE,110,9.0,11.0,-999,-99.99,,,-99.99,,2013-04-08 04:13:00,
2013-04-08 00:23:00,79.0,-99.9,30.01,ESE,110,9.0,11.0,-999,-99.99,,,-99.99,,2013-04-08 04:23:00,
2013-04-08 00:34:00,79.0,-99.9,30.01,ESE,115,9.0,11.0,-999,-99.99,,,-99.99,,2013-04-08 04:34:00,
2013-04-08 00:45:00,79.0,-99.9,30.01,ESE,116,9.0,11.0,-999,-99.99,,,-99.99,,2013-04-08 04:45:00,
2013-04-08 00:53:00,79.0,-99.9,30.01,ESE,108,10.0,13.0,-999,-99.99,,,-99.99,,2013-04-08 04:53:00,
2013-04-08 01:03:00,79.0,-99.9,30.00,ESE,102,11.0,14.0,-999,-99.99,,,-99.99,,2013-04-08 05:03:00,
2013-04-08 01:12:00,80.0,-99.9,30.00,East,98,10.0,12.0,-999,-99.99,,,-99.99,,2013-04-08 05:12:00,
2013-04-08 01:22:00,80.0,-99.9,30.00,East,98,10.0,12.0,-999,-99.99,,,-99.99,,2013-04-08 05:22:00,
2013-04-08 01:32:00,80.0,-99.9,29.99,East,98,11.0,13.0,-999,-99.99,,,-99.99,,2013-04-08 05:32:00,
2013-04-08 01:42:00,79.0,-99.9,29.98,East,101,9.0,14.0,-999,-99.99,,,-99.99,,2013-04-08 05:42:00,
2013-04-08 01:53:00,79.0,-99.9,29.98,East,98,9.0,11.0,-999,-99.99,,,-99.99,,2013-04-08 05:53:00,
2013-04-08 02:02:00,79.0,-99.9,29.98,ESE,104,8.0,11.0,-999,-99.99,,,-99.99,,2013-04-08 06:02:00,
2013-04-08 02:12:00,79.0,-99.9,29.97,ESE,117,8.0,11.0,-999,-99.99,,,-99.99,,2013-04-08 06:12:00,
2013-04-08 02:22:00,79.0,-99.9,29.97,ESE,107,9.0,11.0,-999,-99.99,,,-99.99,,2013-04-08 06:22:00,
2013-04-08 02:32:00,79.0,-99.9,29.97,ESE,108,8.0,11.0,-999,-99.99,,,-99.99,,2013-04-08 06:32:00,
2013-04-08 02:43:00,79.0,-99.9,29.96,ESE,109,9.0,11.0,-999,-99.99,,,-99.99,,2013-04-08 06:43:00,
2013-04-08 02:52:00,79.0,-99.9,29.96,ESE,119,6.0,9.0,-999,-99.99,,,-99.99,,2013-04-08 06:52:00,
2013-04-08 03:02:00,79.0,-99.9,29.96,ESE,111,7.0,11.0,-999,-99.99,,,-99.99,,2013-04-08 07:02:00,
2013-04-08 03:12:00,79.0,-99.9,29.96,ESE,110,6.0,8.0,-999,-99.99,,,-99.99,,2013-04-08 07:12:00,
2013-04-08 03:22:00,79.0,-99.9,29.96,ESE,110,6.0,8.0,-999,-99.99,,,-99.99,,2013-04-08 07:22:00,
2013-04-08 03:33:00,79.0,-99.9,29.96,ESE,110,6.0,8.0,-999,-99.99,,,-99.99,,2013-04-08 07:33:00,
2013-04-08 03:42:00,79.0,-99.9,29.95,East,99,8.0,12.0,-999,-99.99,,,-99.99,,2013-04-08 07:42:00,
2013-04-08 03:53:00,79.0,-99.9,29.94,ESE,103,8.0,9.0,-999,-99.99,,,-99.99,,2013-04-08 07:53:00,
2013-04-08 04:02:00,79.0,-99.9,29.94,ESE,115,6.0,7.0,-999,-99.99,,,-99.99,,2013-04-08 08:02:00,
2013-04-08 04:12:00,79.0,-99.9,29.94,ESE,115,6.0,7.0,-999,-99.99,,,-99.99,,2013-04-08 08:12:00,
2013-04-08 04:22:00,79.0,-99.9,29.94,ESE,115,6.0,7.0,-999,-99.99,,,-99.99,,2013-04-08 08:22:00,
2013-04-08 04:33:00,79.0,-99.9,29.94,ESE,115,6.0,7.0,-999,-99.99,,,-99.99,,2013-04-08 08:33:00,
2013-04-08 04:43:00,79.0,-99.9,29.94,ESE,119,7.0,9.0,-999,-99.99,,,-99.99,,2013-04-08 08:43:00,
2013-04-08 04:52:00,79.0,-99.9,29.94,ESE,113,7.0,11.0,-999,-99.99,,,-99.99,,2013-04-08 08:52:00,
2013-04-08 05:03:00,79.0,-99.9,29.94,SE,128,6.0,9.0,-999,-99.99,,,-99.99,,2013-04-08 09:03:00,
2013-04-08 05:12:00,79.0,-99.9,29.95,ESE,122,7.0,8.0,-999,-99.99,,,-99.99,,2013-04-08 09:12:00,
2013-04-08 05:23:00,79.0,-99.9,29.95,ESE,104,9.0,11.0,-999,-99.99,,,-99.99,,2013-04-08 09:23:00,
2013-04-08 05:34:00,79.0,-99.9,29.95,ESE,103,8.0,11.0,-999,-99.99,,,-99.99,,2013-04-08 09:34:00,
2013-04-08 05:43:00,79.0,-99.9,29.95,ESE,102,7.0,11.0,-999,-99.99,,,-99.99,,2013-04-08 09:43:00,
2013-04-08 05:53:00,79.0,-99.9,29.95,East,94,7.0,8.0,-999,-99.99,,,-99.99,,2013-04-08 09:53:00,
2013-04-08 06:03:00,79.0,-99.9,29.96,ESE,111,10.0,15.0,-999,-99.99,,,-99.99,,2013-04-08 10:03:00,
2013-04-08 06:13:00,79.0,-99.9,29.96,ESE,104,11.0,14.0,-999,-99.99,,,-99.99,,2013-04-08 10:13:00,
2013-04-08 06:23:00,79.0,-99.9,29.96,ESE,104,11.0,14.0,-999,-99.99,,,-99.99,,2013-04-08 10:23:00,
2013-04-08 06:33:00,79.0,-99.9,29.96,ESE,103,12.0,15.0,-999,-99.99,,,-99.99,,2013-04-08 10:33:00,
2013-04-08 06:43:00,79.0,-99.9,29.97,East,100,12.0,15.0,-999,-99.99,,,-99.99,,2013-04-08 10:43:00,
2013-04-08 06:53:00,79.0,-99.9,29.97,ESE,108,13.0,18.0,-999,-99.99,,,-99.99,,2013-04-08 10:53:00,
2013-04-08 07:03:00,79.0,-99.9,29.98,ESE,106,13.0,16.0,-999,-99.99,,,-99.99,,2013-04-08 11:03:00,
2013-04-08 07:12:00,79.0,-99.9,29.98,East,96,12.0,17.0,-999,-99.99,,,-99.99,,2013-04-08 11:12:00,
2013-04-08 07:23:00,79.0,-99.9,29.98,ESE,103,13.0,17.0,-999,-99.99,,,-99.99,,2013-04-08 11:23:00,
2013-04-08 07:33:00,79.0,-99.9,29.98,ESE,113,14.0,17.0,-999,-99.99,,,-99.99,,2013-04-08 11:33:00,
2013-04-08 07:43:00,79.0,-99.9,29.98,ESE,104,15.0,17.0,-999,-99.99,,,-99.99,,2013-04-08 11:43:00,
2013-04-08 07:53:00,79.0,-99.9,29.99,ESE,109,11.0,16.0,-999,-99.99,,,-99.99,,2013-04-08 11:53:00,
2013-04-08 08:03:00,79.0,-99.9,29.99,ESE,115,12.0,16.0,-999,-99.99,,,-99.99,,2013-04-08 12:03:00,
2013-04-08 08:12:00,80.0,-99.9,30.00,ESE,118,14.0,20.0,-999,-99.99,,,-99.99,,2013-04-08 12:12:00,
2013-04-08 08:23:00,79.0,-99.9,30.00,SE,125,16.0,20.0,-999,-99.99,,,-99.99,,2013-04-08 12:23:00,
2013-04-08 08:33:00,79.0,-99.9,30.01,ESE,119,14.0,19.0,-999,-99.99,,,-99.99,,2013-04-08 12:33:00,
2013-04-08 08:43:00,80.0,-99.9,30.01,SE,128,14.0,17.0,-999,-99.99,,,-99.99,,2013-04-08 12:43:00,
2013-04-08 08:53:00,81.0,-99.9,30.01,ESE,102,11.0,15.0,-999,-99.99,,,-99.99,,2013-04-08 12:53:00,
2013-04-08 09:03:00,80.0,-99.9,30.01,ESE,102,16.0,19.0,-999,-99.99,,,-99.99,,2013-04-08 13:03:00,
2013-04-08 09:12:00,80.0,-99.9,30.02,East,93,14.0,20.0,-999,-99.99,,,-99.99,,2013-04-08 13:12:00,
2013-04-08 09:22:00,80.0,-99.9,30.03,East,92,12.0,16.0,-999,-99.99,,,-99.99,,2013-04-08 13:22:00,
2013-04-08 09:33:00,81.0,-99.9,30.03,East,100,13.0,15.0,-999,-99.99,,,-99.99,,2013-04-08 13:33:00,
2013-04-08 09:43:00,81.0,-99.9,30.03,East,84,16.0,19.0,-999,-99.99,,,-99.99,,2013-04-08 13:43:00,
2013-04-08 09:53:00,80.0,-99.9,30.03,East,83,16.0,19.0,-999,-99.99,,,-99.99,,2013-04-08 13:53:00,
2013-04-08 10:03:00,80.0,-99.9,30.04,East,90,16.0,20.0,-999,-99.99,,,-99.99,,2013-04-08 14:03:00,
2013-04-08 10:12:00,80.0,-99.9,30.04,East,89,17.0,21.0,-999,-99.99,,,-99.99,,2013-04-08 14:12:00,
2013-04-08 10:22:00,80.0,-99.9,30.04,East,83,18.0,21.0,-999,-99.99,,,-99.99,,2013-04-08 14:22:00,
2013-04-08 10:33:00,81.0,-99.9,30.04,East,82,18.0,21.0,-999,-99.99,,,-99.99,,2013-04-08 14:33:00,
2013-04-08 10:43:00,80.0,-99.9,30.03,East,84,18.0,23.0,-999,-99.99,,,-99.99,,2013-04-08 14:43:00,
2013-04-08 10:53:00,80.0,-99.9,30.03,East,83,20.0,23.0,-999,-99.99,,,-99.99,,2013-04-08 14:53:00,
2013-04-08 11:03:00,81.0,-99.9,30.03,East,81,19.0,24.0,-999,-99.99,,,-99.99,,2013-04-08 15:03:00,
2013-04-08 11:12:00,80.0,-99.9,30.03,East,86,19.0,23.0,-999,-99.99,,,-99.99,,2013-04-08 15:12:00,
2013-04-08 11:22:00,80.0,-99.9,30.02,East,79,20.0,22.0,-999,-99.99,,,-99.99,,2013-04-08 15:22:00,
2013-04-08 11:35:00,81.0,-99.9,30.02,East,84,22.0,26.0,-999,-99.99,,,-99.99,,2013-04-08 15:35:00,
2013-04-08 11:43:00,80.0,-99.9,30.02,East,90,21.0,25.0,-999,-99.99,,,-99.99,,2013-04-08 15:43:00,
2013-04-08 11:53:00,81.0,-99.9,30.02,East,82,21.0,25.0,-999,-99.99,,,-99.99,,2013-04-08 15:53:00,
2013-04-08 12:03:00,81.0,-99.9,30.02,East,84,21.0,27.0,-999,-99.99,,,-99.99,,2013-04-08 16:03:00,
2013-04-08 12:13:00,81.0,-99.9,30.01,East,86,21.0,25.0,-999,-99.99,,,-99.99,,2013-04-08 16:13:00,
2013-04-08 12:23:00,81.0,-99.9,30.01,East,86,22.0,26.0,-999,-99.99,,,-99.99,,2013-04-08 16:23:00,
2013-04-08 12:33:00,81.0,-99.9,30.01,East,86,22.0,26.0,-999,-99.99,,,-99.99,,2013-04-08 16:33:00,
2013-04-08 12:42:00,80.0,-99.9,30.01,East,83,22.0,26.0,-999,-99.99,,,-99.99,,2013-04-08 16:42:00,
2013-04-08 12:54:00,80.0,-99.9,30.00,East,85,21.0,26.0,-999,-99.99,,,-99.99,,2013-04-08 16:54:00,
2013-04-08 13:03:00,81.0,-99.9,30.00,East,81,17.0,22.0,-999,-99.99,,,-99.99,,2013-04-08 17:03:00,
2013-04-08 13:12:00,81.0,-99.9,30.00,East,81,19.0,23.0,-999,-99.99,,,-99.99,,2013-04-08 17:12:00,
2013-04-08 13:23:00,81.0,-99.9,29.99,ENE,78,19.0,25.0,-999,-99.99,,,-99.99,,2013-04-08 17:23:00,
2013-04-08 13:32:00,81.0,-99.9,29.99,ENE,78,18.0,23.0,-999,-99.99,,,-99.99,,2013-04-08 17:32:00,
2013-04-08 13:45:00,81.0,-99.9,29.98,East,79,19.0,23.0,-999,-99.99,,,-99.99,,2013-04-08 17:45:00,
2013-04-08 13:53:00,80.0,-99.9,29.98,ENE,74,22.0,26.0,-999,-99.99,,,-99.99,,2013-04-08 17:53:00,
2013-04-08 14:02:00,81.0,-99.9,29.98,ENE,74,22.0,27.0,-999,-99.99,,,-99.99,,2013-04-08 18:02:00,
2013-04-08 14:12:00,80.0,-99.9,29.97,ENE,74,22.0,25.0,-999,-99.99,,,-99.99,,2013-04-08 18:12:00,
2013-04-08 14:23:00,81.0,-99.9,29.97,ENE,73,20.0,25.0,-999,-99.99,,,-99.99,,2013-04-08 18:23:00,
2013-04-08 14:32:00,81.0,-99.9,29.97,ENE,75,21.0,25.0,-999,-99.99,,,-99.99,,2013-04-08 18:32:00,
2013-04-08 14:43:00,81.0,-99.9,29.97,ENE,72,20.0,25.0,-999,-99.99,,,-99.99,,2013-04-08 18:43:00,
2013-04-08 14:53:00,81.0,-99.9,29.97,ENE,64,16.0,24.0,-999,-99.99,,,-99.99,,2013-04-08 18:53:00,
2013-04-08 15:03:00,81.0,-99.9,29.97,ENE,68,17.0,25.0,-999,-99.99,,,-99.99,,2013-04-08 19:03:00,
2013-04-08 15:13:00,81.0,-99.9,29.96,ENE,75,14.0,21.0,-999,-99.99,,,-99.99,,2013-04-08 19:13:00,
2013-04-08 15:23:00,81.0,-99.9,29.96,ENE,68,17.0,24.0,-999,-99.99,,,-99.99,,2013-04-08 19:23:00,
2013-04-08 15:34:00,81.0,-99.9,29.96,ENE,74,15.0,22.0,-999,-99.99,,,-99.99,,2013-04-08 19:34:00,
2013-04-08 15:43:00,81.0,-99.9,29.96,ENE,78,16.0,20.0,-999,-99.99,,,-99.99,,2013-04-08 19:43:00,
2013-04-08 15:53:00,81.0,-99.9,29.96,ENE,70,15.0,23.0,-999,-99.99,,,-99.99,,2013-04-08 19:53:00,
2013-04-08 16:02:00,81.0,-99.9,29.96,ENE,65,15.0,21.0,-999,-99.99,,,-99.99,,2013-04-08 20:02:00,
2013-04-08 16:12:00,81.0,-99.9,29.95,ENE,74,15.0,23.0,-999,-99.99,,,-99.99,,2013-04-08 20:12:00,
2013-04-08 16:23:00,81.0,-99.9,29.95,ENE,76,15.0,24.0,-999,-99.99,,,-99.99,,2013-04-08 20:23:00,
2013-04-08 16:33:00,81.0,-99.9,29.95,East,82,15.0,23.0,-999,-99.99,,,-99.99,,2013-04-08 20:33:00,
2013-04-08 16:43:00,81.0,-99.9,29.94,East,84,15.0,24.0,-999,-99.99,,,-99.99,,2013-04-08 20:43:00,
2013-04-08 16:53:00,80.0,-99.9,29.95,East,82,19.0,24.0,-999,-99.99,,,-99.99,,2013-04-08 20:53:00,
2013-04-08 17:02:00,81.0,-99.9,29.95,ENE,76,14.0,20.0,-999,-99.99,,,-99.99,,2013-04-08 21:02:00,
2013-04-08 17:12:00,81.0,-99.9,29.95,ENE,78,13.0,17.0,-999,-99.99,,,-99.99,,2013-04-08 21:12:00,
2013-04-08 17:22:00,81.0,-99.9,29.95,East,84,18.0,23.0,-999,-99.99,,,-99.99,,2013-04-08 21:22:00,
2013-04-08 17:33:00,81.0,-99.9,29.95,East,84,20.0,26.0,-999,-99.99,,,-99.99,,2013-04-08 21:33:00,
2013-04-08 17:43:00,81.0,-99.9,29.95,East,85,20.0,25.0,-999,-99.99,,,-99.99,,2013-04-08 21:43:00,
2013-04-08 17:53:00,80.0,-99.9,29.95,East,84,15.0,25.0,-999,-99.99,,,-99.99,,2013-04-08 21:53:00,
2013-04-08 18:03:00,80.0,-99.9,29.96,East,84,13.0,23.0,-999,-99.99,,,-99.99,,2013-04-08 22:03:00,
2013-04-08 18:13:00,80.0,-99.9,29.96,East,83,19.0,22.0,-999,-99.99,,,-99.99,,2013-04-08 22:13:00,
2013-04-08 18:23:00,80.0,-99.9,29.95,East,85,19.0,22.0,-999,-99.99,,,-99.99,,2013-04-08 22:23:00,
2013-04-08 18:32:00,80.0,-99.9,29.95,East,85,19.0,22.0,-999,-99.99,,,-99.99,,2013-04-08 22:32:00,
2013-04-08 18:44:00,80.0,-99.9,29.95,East,88,18.0,23.0,-999,-99.99,,,-99.99,,2013-04-08 22:44:00,
2013-04-08 18:53:00,80.0,-99.9,29.96,East,80,18.0,24.0,-999,-99.99,,,-99.99,,2013-04-08 22:53:00,
2013-04-08 19:03:00,80.0,-99.9,29.96,East,82,18.0,24.0,-999,-99.99,,,-99.99,,2013-04-08 23:03:00,
2013-04-08 19:13:00,80.0,-99.9,29.97,East,87,17.0,22.0,-999,-99.99,,,-99.99,,2013-04-08 23:13:00,
2013-04-08 19:22:00,80.0,-99.9,29.97,East,87,17.0,22.0,-999,-99.99,,,-99.99,,2013-04-08 23:22:00,
2013-04-08 19:32:00,80.0,-99.9,29.98,East,90,17.0,21.0,-999,-99.99,,,-99.99,,2013-04-08 23:32:00,
2013-04-08 19:43:00,80.0,-99.9,29.99,East,84,16.0,20.0,-999,-99.99,,,-99.99,,2013-04-08 23:43:00,
2013-04-08 19:52:00,80.0,-99.9,29.99,East,81,16.0,20.0,-999,-99.99,,,-99.99,,2013-04-08 23:52:00,
2013-04-08 20:02:00,80.0,-99.9,29.99,East,86,18.0,20.0,-999,-99.99,,,-99.99,,2013-04-09 00:02:00,
2013-04-08 20:13:00,80.0,-99.9,29.99,East,88,15.0,22.0,-999,-99.99,,,-99.99,,2013-04-09 00:13:00,
2013-04-08 20:22:00,80.0,-99.9,30.00,East,85,17.0,21.0,-999,-99.99,,,-99.99,,2013-04-09 00:22:00,
2013-04-08 20:32:00,80.0,-99.9,30.00,East,82,17.0,20.0,-999,-99.99,,,-99.99,,2013-04-09 00:32:00,
2013-04-08 20:42:00,80.0,-99.9,30.00,East,87,17.0,20.0,-999,-99.99,,,-99.99,,2013-04-09 00:42:00,
2013-04-08 20:52:00,80.0,-99.9,30.01,East,85,17.0,21.0,-999,-99.99,,,-99.99,,2013-04-09 00:52:00,
2013-04-08 21:03:00,80.0,-99.9,30.01,East,88,15.0,20.0,-999,-99.99,,,-99.99,,2013-04-09 01:03:00,
2013-04-08 21:12:00,80.0,-99.9,30.01,East,96,16.0,20.0,-999,-99.99,,,-99.99,,2013-04-09 01:12:00,
2013-04-08 21:22:00,80.0,-99.9,30.01,East,87,17.0,21.0,-999,-99.99,,,-99.99,,2013-04-09 01:22:00,
2013-04-08 21:34:00,80.0,-99.9,30.01,East,80,15.0,20.0,-999,-99.99,,,-99.99,,2013-04-09 01:34:00,
2013-04-08 21:42:00,80.0,-99.9,30.02,East,79,15.0,20.0,-999,-99.99,,,-99.99,,2013-04-09 01:42:00,
2013-04-08 21:53:00,80.0,-99.9,30.02,East,91,19.0,21.0,-999,-99.99,,,-99.99,,2013-04-09 01:53:00,
2013-04-08 22:02:00,79.0,-99.9,30.03,East,82,17.0,20.0,-999,-99.99,,,-99.99,,2013-04-09 02:02:00,
2013-04-08 22:13:00,80.0,-99.9,30.03,East,90,14.0,18.0,-999,-99.99,,,-99.99,,2013-04-09 02:13:00,
2013-04-08 22:22:00,80.0,-99.9,30.03,East,82,14.0,20.0,-999,-99.99,,,-99.99,,2013-04-09 02:22:00,
2013-04-08 22:33:00,80.0,-99.9,30.04,East,91,14.0,22.0,-999,-99.99,,,-99.99,,2013-04-09 02:33:00,
2013-04-08 22:44:00,80.0,-99.9,30.03,East,83,14.0,18.0,-999,-99.99,,,-99.99,,2013-04-09 02:44:00,
2013-04-08 22:52:00,80.0,-99.9,30.03,East,81,13.0,19.0,-999,-99.99,,,-99.99,,2013-04-09 02:52:00,
2013-04-08 23:02:00,79.0,-99.9,30.03,East,86,15.0,19.0,-999,-99.99,,,-99.99,,2013-04-09 03:02:00,
2013-04-08 23:12:00,79.0,-99.9,30.03,ENE,76,15.0,21.0,-999,-99.99,,,-99.99,,2013-04-09 03:12:00,
2013-04-08 23:22:00,79.0,-99.9,30.03,East,83,17.0,20.0,-999,-99.99,,,-99.99,,2013-04-09 03:22:00,
2013-04-08 23:33:00,79.0,-99.9,30.03,East,85,19.0,23.0,-999,-99.99,,,-99.99,,2013-04-09 03:33:00,
2013-04-08 23:43:00,79.0,-99.9,30.03,East,88,19.0,24.0,-999,-99.99,,,-99.99,,2013-04-09 03:43:00,
2013-04-08 23:53:00,79.0,-99.9,30.03,East,81,16.0,19.0,-999,-99.99,,,-99.99,,2013-04-09 03:53:00,